Terminal Aerodrome Forecast
Issued by NWS

Home | Current Version | Previous Version | Text Only | Print | Product List | Glossary On
Versions: 1 2 3 4 5 6 7 8 9 10 11 12
000
FTUS41 KBTV 302338
TAFMSS
TAF
KMSS 302338Z 0100/0124 08006KT P6SM VCSH OVC040
     FM010300 VRB03KT P6SM SCT015 OVC030
     FM010900 VRB03KT P6SM BKN020 OVC035
     FM011300 20007KT P6SM VCSH OVC020
     FM011500 22009KT P6SM -SHRA SCT015 OVC025
     FM012100 23012G18KT P6SM OVC030=

USA.gov is the U.S. government's official web portal to all federal, state and local government web resources and services.